Bookmark and Share
Track history (hours):
 

Ag Nektarios Aiginas

Last reported at 2014-Apr-25 04:33 UTC. Time now 2014-Apr-25 05:46 UTC.
Position N 37°57' E 023°38'.

Length 75 m; draft 2.7 m.

Type: Passenger vessel. MMSI: 237021400.

NotesDate/timePositionNaut miles runAvg speedWind from/ knotsBaromVisibWave heightAir tempDewpointWater temp
2014-Apr-25 04:33N 37°57' E 023°38'2 0.2
2014-Apr-24 16:33N 37°55' E 023°36'1312.7
2014-Apr-24 15:33N 37°46' E 023°25'0 0.3
2014-Apr-24 14:31N 37°46' E 023°25'1212.7
2014-Apr-24 13:33N 37°55' E 023°36'1 0.5
2014-Apr-24 12:33N 37°55' E 023°36'1312.4
2014-Apr-24 11:32N 37°46' E 023°24'3 2.8
2014-Apr-24 10:19N 37°48' E 023°28'1012.9
2014-Apr-24 09:33N 37°55' E 023°36'1 1.3
2014-Apr-24 08:33N 37°56' E 023°37'1212.2
2014-Apr-24 07:33N 37°47' E 023°27'0 0.3
2014-Apr-24 06:32N 37°47' E 023°27'1212.3
2014-Apr-24 05:33N 37°56' E 023°37'2 1.7
2014-Apr-24 04:33N 37°57' E 023°39'1 0.1
2014-Apr-23 16:33N 37°56' E 023°37'1312.9
2014-Apr-23 15:33N 37°47' E 023°26'1 0.7
2014-Apr-23 14:29N 37°46' E 023°25'1212.8
2014-Apr-23 13:33N 37°54' E 023°36'1 0.6
2014-Apr-23 12:34N 37°54' E 023°35'11 5.7
2014-Apr-23 10:33N 37°46' E 023°25'1313.0
2014-Apr-23 09:33N 37°55' E 023°36'0 0.3
2014-Apr-23 08:34N 37°55' E 023°37'1312.6
2014-Apr-23 07:34N 37°46' E 023°25'1 1.0
2014-Apr-23 06:30N 37°47' E 023°27'1212.8
2014-Apr-23 05:33N 37°56' E 023°37'2 1.6
2014-Apr-23 04:34N 37°57' E 023°39'0 0.0
2014-Apr-22 19:33N 37°57' E 023°38'1212.3
2014-Apr-22 18:33N 37°48' E 023°28'1 1.0
2014-Apr-22 17:17N 37°47' E 023°26'912.8
2014-Apr-22 16:33N 37°53' E 023°35'0 0.3
2014-Apr-22 15:33N 37°54' E 023°35'1210.6
2014-Apr-22 14:28N 37°45' E 023°26'4 3.9
2014-Apr-22 13:33N 37°48' E 023°28'1212.3
2014-Apr-22 12:33N 37°57' E 023°38'6 5.6
2014-Apr-22 11:33N 37°52' E 023°34'7 3.3
2014-Apr-22 09:33N 37°48' E 023°28'1212.3
2014-Apr-22 08:33N 37°57' E 023°38'7 7.4
2014-Apr-22 07:33N 37°51' E 023°32'8 7.5
2014-Apr-22 06:27N 37°45' E 023°26'6 6.3
2014-Apr-22 05:33N 37°48' E 023°31'1010.3
2014-Apr-22 04:33N 37°57' E 023°39'0 0.0
2014-Apr-22 03:33N 37°57' E 023°39'0 0.0
2014-Apr-21 20:06N 37°57' E 023°38'3 5.4
2014-Apr-21 19:33N 37°55' E 023°36'1312.6
2014-Apr-21 18:33N 37°45' E 023°24'2 1.8
2014-Apr-21 17:27N 37°47' E 023°26'1212.9
2014-Apr-21 16:33N 37°55' E 023°36'3 3.1
2014-Apr-21 15:33N 37°53' E 023°34'6 3.1
2014-Apr-21 13:27N 37°48' E 023°28'1112.6
2014-Apr-21 12:33N 37°57' E 023°38'5 5.2
2014-Apr-21 11:33N 37°53' E 023°34'7 3.3
2014-Apr-21 09:32N 37°48' E 023°28'1212.3
2014-Apr-21 08:33N 37°57' E 023°38'5 4.9
2014-Apr-21 07:33N 37°53' E 023°34'11 7.3
2014-Apr-21 06:04N 37°45' E 023°25'510.6
2014-Apr-21 05:33N 37°49' E 023°30'1110.6
2014-Apr-21 04:33N 37°57' E 023°38'0 0.0
2014-Apr-21 03:33N 37°57' E 023°38'1 0.0
2014-Apr-19 16:34N 37°56' E 023°37'1312.7
2014-Apr-19 15:33N 37°47' E 023°26'0 0.1
2014-Apr-19 14:27N 37°47' E 023°26'1112.7
2014-Apr-19 13:33N 37°55' E 023°36'1 0.8
2014-Apr-19 12:33N 37°56' E 023°37'1312.8
2014-Apr-19 11:33N 37°46' E 023°25'0 0.5
2014-Apr-19 10:32N 37°46' E 023°25'1312.6
2014-Apr-19 09:33N 37°55' E 023°36'2 2.4
2014-Apr-19 08:33N 37°57' E 023°38'1211.9
2014-Apr-19 07:33N 37°48' E 023°28'1 0.9
2014-Apr-19 06:20N 37°49' E 023°29'1012.6
2014-Apr-19 05:33N 37°56' E 023°37'1 1.2
2014-Apr-19 04:33N 37°57' E 023°38'2 0.1
2014-Apr-18 16:33N 37°56' E 023°37'1313.1
2014-Apr-18 15:33N 37°46' E 023°25'3 2.5
2014-Apr-18 14:33N 37°48' E 023°28'1212.0
2014-Apr-18 13:33N 37°57' E 023°38'3 2.7
2014-Apr-18 12:33N 37°54' E 023°36'8 4.1
2014-Apr-18 10:33N 37°49' E 023°29'1111.2
2014-Apr-18 09:33N 37°57' E 023°39'1 1.4
2014-Apr-18 08:33N 37°56' E 023°37'1212.5
2014-Apr-18 07:33N 37°47' E 023°26'1 1.1
2014-Apr-18 06:33N 37°48' E 023°27'1212.2
2014-Apr-18 05:33N 37°56' E 023°38'0 0.3
2014-Apr-18 04:32N 37°57' E 023°38'0 0.0
2014-Apr-17 20:05N 37°57' E 023°38'4 8.5
2014-Apr-17 19:33N 37°53' E 023°35'1111.4
2014-Apr-17 18:34N 37°45' E 023°25'5 4.7
2014-Apr-17 17:33N 37°49' E 023°29'1111.2
2014-Apr-17 16:33N 37°57' E 023°39'5 4.5
2014-Apr-17 15:33N 37°54' E 023°34'6 3.0
2014-Apr-17 13:33N 37°49' E 023°29'1110.8
2014-Apr-17 12:34N 37°57' E 023°39'5 5.0
2014-Apr-17 11:33N 37°53' E 023°34'1110.6
2014-Apr-17 10:33N 37°45' E 023°25'5 5.3
2014-Apr-17 09:33N 37°49' E 023°30'1010.6
2014-Apr-17 08:33N 37°57' E 023°39'6 5.6
2014-Apr-17 07:33N 37°52' E 023°34'10 7.9
2014-Apr-17 06:16N 37°45' E 023°25'7 9.7
2014-Apr-17 05:33N 37°50' E 023°32'9 8.9
2014-Apr-17 04:33N 37°57' E 023°38'0 0.0
2014-Apr-17 03:33N 37°57' E 023°38'0 0.0
2014-Apr-16 17:14N 37°57' E 023°38'7 9.7
2014-Apr-16 16:33N 37°50' E 023°37'1010.2
2014-Apr-16 15:33N 37°46' E 023°25'3 3.1
2014-Apr-16 14:33N 37°47' E 023°29'1110.7
2014-Apr-16 13:33N 37°56' E 023°36'1 0.6
2014-Apr-16 12:33N 37°56' E 023°37'1312.6
2014-Apr-16 11:33N 37°47' E 023°26'1 1.1
2014-Apr-16 10:33N 37°47' E 023°27'1212.0
2014-Apr-16 09:33N 37°56' E 023°37'1 1.1
2014-Apr-16 08:33N 37°57' E 023°38'1211.7
2014-Apr-16 07:33N 37°48' E 023°28'1 0.9
2014-Apr-16 06:27N 37°48' E 023°27'1112.6
2014-Apr-16 05:33N 37°56' E 023°37'2 1.6
2014-Apr-16 04:33N 37°57' E 023°38'2 0.2
2014-Apr-15 16:33N 37°55' E 023°36'1312.6
2014-Apr-15 15:33N 37°46' E 023°25'1 0.8
2014-Apr-15 14:31N 37°47' E 023°26'12 6.2
2014-Apr-15 12:34N 37°56' E 023°36'0 0.5
2014-Apr-15 11:34N 37°56' E 023°37'1312.9
2014-Apr-15 10:33N 37°46' E 023°25'0 0.4
2014-Apr-15 09:34N 37°46' E 023°25'1312.7
2014-Apr-15 08:34N 37°55' E 023°36'2 2.1
2014-Apr-15 07:34N 37°57' E 023°38'1212.4
2014-Apr-15 06:34N 37°48' E 023°27'  

Dump ship's entire track history

sailing weather and tide predictions

Ag Nektarios Aiginas — SX7083 — position and weather